Time;durP1;ratioP1;P1;durP2;ratioP2;P2;SDS_P1;SDS_P2;PMS_P1;PMS_P2;Temp;Humidity;BMP_temperature;BMP_pressure;BME280_temperature;BME280_humidity;BME280_pressure;Samples;Min_cycle;Max_cycle;Signal;HPM_P1;HPM_P2
2020/12/25 00:00:11;;;;;;;97.75;38.20;;;3.60;99.90;;;;;;4992323;28;20045;-86
2020/12/25 00:02:37;;;;;;;100.35;40.72;;;3.70;99.90;;;;;;4974745;28;20053;-86
2020/12/25 00:05:16;;;;;;;94.78;39.92;;;3.60;99.90;;;;;;4991468;28;20112;-86
2020/12/25 00:07:55;;;;;;;90.93;38.55;;;3.70;99.90;;;;;;4990672;28;20022;-85
2020/12/25 00:14:00;;;;;;;105.90;40.22;;;3.70;99.90;;;;;;4932550;29;20036;-85
2020/12/25 00:16:29;;;;;;;87.88;37.30;;;3.60;99.90;;;;;;4991712;28;20030;-87
2020/12/25 00:18:55;;;;;;;191.88;74.38;;;4.00;99.90;;;;;;4995521;28;20056;-88
2020/12/25 00:21:21;;;;;;;135.25;61.08;;;4.20;99.90;;;;;;5011566;28;20362;-83
2020/12/25 00:23:47;;;;;;;115.57;46.70;;;4.30;99.90;;;;;;4980526;28;20148;-84
2020/12/25 00:26:28;;;;;;;99.22;40.95;;;4.10;99.90;;;;;;4993644;28;20026;-84
2020/12/25 00:28:55;;;;;;;102.72;38.83;;;3.80;99.90;;;;;;5011190;28;20034;-81
2020/12/25 00:31:29;;;;;;;86.50;36.42;;;3.80;99.90;;;;;;5012309;28;20026;-87
2020/12/25 00:34:04;;;;;;;115.43;39.30;;;3.70;99.90;;;;;;5010614;28;20481;-85
2020/12/25 00:36:38;;;;;;;81.68;36.92;;;3.40;99.90;;;;;;5012594;28;20064;-85
2020/12/25 00:39:08;;;;;;;77.57;35.33;;;3.50;99.90;;;;;;5012895;28;20446;-87
2020/12/25 00:41:34;;;;;;;82.53;36.27;;;3.60;99.90;;;;;;5012750;28;20018;-87
2020/12/25 00:44:00;;;;;;;78.38;36.30;;;3.60;99.90;;;;;;5011224;28;20058;-87
2020/12/25 00:46:26;;;;;;;93.78;35.38;;;3.60;99.90;;;;;;5016009;28;20029;-87
2020/12/25 00:48:53;;;;;;;81.22;34.10;;;3.50;99.90;;;;;;5016506;28;20036;-83
2020/12/25 00:51:21;;;;;;;78.18;36.25;;;3.40;99.90;;;;;;5016311;28;20025;-84
2020/12/25 00:53:48;;;;;;;78.55;34.58;;;3.40;99.90;;;;;;5015624;28;20057;-82
2020/12/25 00:56:15;;;;;;;75.78;33.80;;;3.40;99.90;;;;;;5016167;28;20030;-86
2020/12/25 00:58:41;;;;;;;77.18;33.80;;;3.40;99.90;;;;;;5015375;28;20045;-86
2020/12/25 01:01:08;;;;;;;72.45;32.65;;;3.50;99.90;;;;;;5015968;28;20422;-83
2020/12/25 01:03:35;;;;;;;85.18;32.67;;;3.40;99.90;;;;;;5014177;28;20038;-83
2020/12/25 01:06:01;;;;;;;80.30;32.05;;;3.40;99.90;;;;;;5016029;28;20034;-86
2020/12/25 01:08:26;;;;;;;78.13;33.08;;;3.40;99.90;;;;;;5016123;28;20029;-84
2020/12/25 01:10:52;;;;;;;67.57;31.70;;;3.40;99.90;;;;;;5015879;28;20026;-83
2020/12/25 01:13:18;;;;;;;64.22;31.92;;;3.40;99.90;;;;;;5015862;28;20120;-83
2020/12/25 01:15:44;;;;;;;70.85;31.70;;;3.30;99.90;;;;;;5015781;28;20022;-86
2020/12/25 01:18:10;;;;;;;72.63;31.50;;;3.40;99.90;;;;;;5014737;28;20029;-85
2020/12/25 01:20:36;;;;;;;80.22;31.80;;;3.20;99.90;;;;;;5016204;28;20083;-85
2020/12/25 01:23:03;;;;;;;68.60;30.50;;;3.30;99.90;;;;;;5014330;28;20123;-85
2020/12/25 01:25:29;;;;;;;66.63;30.52;;;3.30;99.90;;;;;;5015994;28;20033;-85
2020/12/25 01:27:55;;;;;;;66.55;29.98;;;3.40;99.90;;;;;;5014588;28;20359;-83
2020/12/25 01:30:21;;;;;;;68.25;30.77;;;3.40;99.90;;;;;;5015157;28;20041;-88
2020/12/25 01:32:47;;;;;;;67.85;30.80;;;3.40;99.90;;;;;;5014808;28;20460;-83
2020/12/25 01:35:13;;;;;;;59.35;29.92;;;3.40;99.90;;;;;;5014869;28;20030;-86
2020/12/25 01:37:39;;;;;;;122.13;36.05;;;3.50;99.90;;;;;;5015242;28;20420;-83
2020/12/25 01:40:05;;;;;;;60.83;30.60;;;3.30;99.90;;;;;;5014287;28;20026;-83
2020/12/25 01:42:30;;;;;;;65.18;30.73;;;3.30;99.90;;;;;;5013560;28;20032;-82
2020/12/25 01:44:56;;;;;;;71.13;32.75;;;3.40;99.90;;;;;;5014198;28;20041;-87
2020/12/25 01:47:22;;;;;;;65.13;32.83;;;3.40;99.90;;;;;;5014702;28;20049;-83
2020/12/25 01:49:48;;;;;;;68.72;30.98;;;3.40;99.90;;;;;;5015789;28;20057;-88
2020/12/25 01:52:15;;;;;;;67.20;30.35;;;3.50;99.90;;;;;;5015525;28;20045;-89
2020/12/25 01:54:45;;;;;;;73.45;31.10;;;3.40;99.90;;;;;;5015183;28;20038;-85
2020/12/25 01:57:16;;;;;;;68.60;31.00;;;3.50;99.90;;;;;;5013198;28;20036;-85
2020/12/25 01:59:43;;;;;;;92.60;31.20;;;3.50;99.90;;;;;;5015789;28;20088;-88
2020/12/25 02:02:12;;;;;;;99.38;33.33;;;3.40;99.90;;;;;;5015456;28;20084;-88
2020/12/25 02:04:37;;;;;;;68.88;29.33;;;3.30;99.90;;;;;;5013939;28;20034;-84
2020/12/25 02:07:03;;;;;;;68.88;30.85;;;3.50;99.90;;;;;;5014196;28;20108;-87
2020/12/25 02:09:32;;;;;;;70.60;31.05;;;3.60;99.90;;;;;;5014422;28;20030;-86
2020/12/25 02:12:00;;;;;;;73.80;30.30;;;3.60;99.90;;;;;;5013720;28;20049;-85
2020/12/25 02:14:25;;;;;;;63.20;28.98;;;3.60;99.90;;;;;;5015250;28;20080;-83
2020/12/25 02:16:51;;;;;;;57.72;27.10;;;3.50;99.90;;;;;;5014963;28;20030;-85
2020/12/25 02:19:17;;;;;;;65.15;28.95;;;3.60;99.90;;;;;;5014814;28;20102;-84
2020/12/25 02:21:42;;;;;;;63.35;29.05;;;3.60;99.90;;;;;;4996857;28;20118;-85
2020/12/25 02:24:08;;;;;;;60.28;30.13;;;3.60;99.90;;;;;;5012524;28;20533;-82
2020/12/25 02:26:35;;;;;;;77.43;31.88;;;3.60;99.90;;;;;;5013282;28;20052;-81
2020/12/25 02:29:02;;;;;;;62.50;28.60;;;3.60;99.90;;;;;;5014956;28;20033;-84
2020/12/25 02:31:27;;;;;;;55.03;27.45;;;3.60;99.90;;;;;;5013406;28;20145;-83
2020/12/25 02:33:54;;;;;;;61.25;26.77;;;3.30;99.90;;;;;;5014379;28;20054;-85
2020/12/25 02:36:20;;;;;;;67.78;28.50;;;3.40;99.90;;;;;;5013157;28;20176;-84
2020/12/25 02:38:46;;;;;;;63.60;29.02;;;3.50;99.90;;;;;;5014415;28;20030;-84
2020/12/25 02:41:12;;;;;;;71.30;27.48;;;3.40;99.90;;;;;;5014192;28;20029;-85
2020/12/25 02:43:37;;;;;;;56.17;26.42;;;3.40;99.90;;;;;;5018933;28;20053;-84
2020/12/25 02:46:07;;;;;;;67.15;27.75;;;3.30;99.90;;;;;;5016968;28;20051;-81
2020/12/25 02:48:32;;;;;;;60.33;28.35;;;3.40;99.90;;;;;;5015888;28;20037;-83
2020/12/25 02:50:58;;;;;;;57.88;27.80;;;3.50;99.90;;;;;;5034131;28;20021;-86
2020/12/25 02:53:24;;;;;;;61.20;27.20;;;3.50;99.90;;;;;;5033932;28;20053;-87
2020/12/25 02:55:50;;;;;;;61.60;28.13;;;3.40;99.90;;;;;;5016156;28;20264;-84
2020/12/25 02:58:15;;;;;;;63.95;26.25;;;3.40;99.90;;;;;;5016153;28;20114;-83
2020/12/25 03:00:42;;;;;;;59.85;28.38;;;3.30;99.90;;;;;;5033640;28;20069;-82
2020/12/25 03:03:08;;;;;;;68.45;27.88;;;3.30;99.90;;;;;;5015915;28;20029;-83
2020/12/25 03:05:34;;;;;;;57.97;27.23;;;3.30;99.90;;;;;;5033577;28;20374;-86
2020/12/25 03:07:59;;;;;;;60.08;26.52;;;3.30;99.90;;;;;;5032747;28;20484;-83
2020/12/25 03:10:25;;;;;;;56.30;27.38;;;3.20;99.90;;;;;;5033343;28;20109;-82
2020/12/25 03:12:51;;;;;;;55.95;26.73;;;3.20;99.90;;;;;;5033482;28;20029;-84
2020/12/25 03:15:17;;;;;;;74.30;29.85;;;3.30;99.90;;;;;;5015421;28;20041;-83
2020/12/25 03:17:43;;;;;;;67.50;28.42;;;3.30;99.90;;;;;;5016316;28;20389;-81
2020/12/25 03:20:09;;;;;;;82.60;29.38;;;3.30;99.90;;;;;;5032842;28;20037;-83
2020/12/25 03:22:35;;;;;;;86.68;30.13;;;3.30;99.90;;;;;;5015737;28;20079;-85
2020/12/25 03:25:01;;;;;;;57.85;26.58;;;3.20;99.90;;;;;;5015651;28;20041;-82
2020/12/25 03:27:26;;;;;;;69.35;30.17;;;3.20;99.90;;;;;;5018618;28;20493;-90
2020/12/25 03:29:52;;;;;;;67.45;28.25;;;3.30;99.90;;;;;;5014279;28;20108;-84
2020/12/25 03:32:18;;;;;;;70.03;29.08;;;3.40;99.90;;;;;;4996350;28;20029;-87
2020/12/25 03:34:43;;;;;;;61.75;28.08;;;3.50;99.90;;;;;;5013306;28;20026;-86
2020/12/25 03:37:09;;;;;;;67.47;29.00;;;3.50;99.90;;;;;;4996040;28;20044;-84
2020/12/25 03:39:35;;;;;;;59.95;28.17;;;3.40;99.90;;;;;;4995631;28;20021;-84
2020/12/25 03:42:01;;;;;;;64.63;29.80;;;3.50;99.90;;;;;;5013727;28;20064;-85
2020/12/25 03:44:26;;;;;;;69.60;30.25;;;3.60;99.90;;;;;;5012990;28;20119;-88
2020/12/25 03:46:52;;;;;;;78.53;30.40;;;3.60;99.90;;;;;;5013291;28;20030;-86
2020/12/25 03:49:18;;;;;;;70.43;29.75;;;3.60;99.90;;;;;;5013010;28;20045;-86
2020/12/25 03:51:43;;;;;;;71.72;28.92;;;3.50;99.90;;;;;;4995824;28;20026;-82
2020/12/25 03:54:09;;;;;;;72.85;30.23;;;3.50;99.90;;;;;;5013047;28;20089;-87
2020/12/25 03:56:35;;;;;;;69.35;31.23;;;3.40;99.90;;;;;;4995699;28;20053;-84
2020/12/25 03:59:01;;;;;;;67.80;29.52;;;3.50;99.90;;;;;;4995243;28;20504;-87
2020/12/25 04:01:26;;;;;;;93.57;32.05;;;3.50;99.90;;;;;;4995669;28;20502;-84
2020/12/25 04:03:52;;;;;;;73.40;30.58;;;3.40;99.90;;;;;;4995016;28;20038;-83
2020/12/25 04:06:18;;;;;;;68.28;29.65;;;3.40;99.90;;;;;;5012679;28;20025;-83
2020/12/25 04:08:44;;;;;;;71.70;30.02;;;3.40;99.90;;;;;;4995373;28;20040;-83
2020/12/25 04:11:10;;;;;;;63.47;28.50;;;3.50;99.90;;;;;;4995477;28;20034;-87
2020/12/25 04:13:36;;;;;;;58.25;27.58;;;3.50;99.90;;;;;;4995165;28;20433;-89
2020/12/25 04:16:03;;;;;;;69.25;29.67;;;3.60;99.90;;;;;;5012595;28;20049;-84
2020/12/25 04:18:30;;;;;;;66.45;30.35;;;3.70;99.90;;;;;;5012777;28;20025;-85
2020/12/25 04:20:59;;;;;;;67.75;28.50;;;3.70;99.90;;;;;;5011936;28;20497;-85
2020/12/25 04:23:27;;;;;;;66.97;27.03;;;3.60;99.90;;;;;;4995216;28;20445;-81
2020/12/25 04:25:53;;;;;;;67.80;29.75;;;3.60;99.90;;;;;;4995396;28;20049;-86
2020/12/25 04:28:19;;;;;;;61.20;27.77;;;3.50;99.90;;;;;;5014690;28;20025;-81
2020/12/25 04:30:45;;;;;;;64.57;29.80;;;3.70;99.90;;;;;;5032306;28;20038;-81
2020/12/25 04:33:12;;;;;;;104.97;32.28;;;3.60;99.90;;;;;;5032842;28;20041;-86
2020/12/25 04:35:37;;;;;;;72.95;29.60;;;3.60;99.90;;;;;;5031951;28;20032;-84
2020/12/25 04:38:03;;;;;;;72.10;29.27;;;3.50;99.90;;;;;;5032664;28;20025;-83
2020/12/25 04:40:30;;;;;;;85.72;31.38;;;3.60;99.90;;;;;;5032075;28;20029;-87
2020/12/25 04:42:58;;;;;;;87.10;33.67;;;3.40;99.90;;;;;;5032408;28;20082;-85
2020/12/25 04:45:24;;;;;;;71.03;32.05;;;3.50;99.90;;;;;;5014063;28;20409;-84
2020/12/25 04:47:52;;;;;;;78.30;31.48;;;3.50;99.90;;;;;;5014869;28;20465;-84
2020/12/25 04:50:18;;;;;;;64.45;30.10;;;3.60;99.90;;;;;;5032205;28;20331;-83
2020/12/25 04:52:48;;;;;;;76.45;31.33;;;3.70;99.90;;;;;;5014258;28;20029;-80
2020/12/25 04:55:16;;;;;;;77.72;35.05;;;3.70;99.90;;;;;;5014356;28;20029;-84
2020/12/25 04:57:42;;;;;;;81.05;35.95;;;3.70;99.90;;;;;;5032286;28;20029;-81
2020/12/25 05:00:23;;;;;;;87.72;36.97;;;3.70;99.90;;;;;;5031861;28;20025;-83
2020/12/25 05:02:50;;;;;;;89.65;37.42;;;3.80;99.90;;;;;;5013737;28;20025;-86
2020/12/25 05:05:30;;;;;;;88.10;36.83;;;3.70;99.90;;;;;;5013617;28;20539;-85
2020/12/25 05:07:57;;;;;;;104.25;42.03;;;3.70;99.90;;;;;;5028822;28;20397;-83
2020/12/25 05:10:23;;;;;;;121.13;40.88;;;3.50;99.90;;;;;;5014062;28;20272;-84
2020/12/25 05:12:48;;;;;;;106.07;43.08;;;3.40;99.90;;;;;;5031633;28;20029;-83
2020/12/25 05:15:30;;;;;;;109.25;43.67;;;3.40;99.90;;;;;;5031122;28;20041;-87
2020/12/25 05:17:58;;;;;;;103.28;45.03;;;3.40;99.90;;;;;;5013965;28;20033;-90
2020/12/25 05:20:26;;;;;;;105.30;45.58;;;3.60;99.90;;;;;;5014202;28;20049;-86
2020/12/25 05:23:09;;;;;;;105.78;45.70;;;3.80;99.90;;;;;;5032031;28;20028;-87
2020/12/25 05:25:34;;;;;;;106.68;41.75;;;3.80;99.90;;;;;;5014530;28;20045;-83
2020/12/25 05:28:11;;;;;;;105.22;44.38;;;3.70;99.90;;;;;;5031925;28;20030;-85
2020/12/25 05:30:37;;;;;;;109.72;42.05;;;3.80;99.90;;;;;;5032113;28;20060;-86
2020/12/25 05:33:03;;;;;;;86.50;38.90;;;3.80;99.90;;;;;;5035406;28;20052;-82
2020/12/25 05:35:30;;;;;;;83.22;36.03;;;3.80;99.90;;;;;;5035231;28;20025;-85
2020/12/25 05:37:56;;;;;;;80.57;31.88;;;3.80;99.90;;;;;;5035519;28;20413;-85
2020/12/25 05:40:23;;;;;;;64.78;29.25;;;3.60;99.90;;;;;;5035675;28;20321;-88
2020/12/25 05:42:50;;;;;;;82.38;30.40;;;3.40;99.90;;;;;;5017494;28;20030;-87
2020/12/25 05:45:21;;;;;;;66.07;31.05;;;3.50;99.90;;;;;;5017399;28;20053;-84
2020/12/25 05:48:01;;;;;;;70.85;30.73;;;3.50;99.90;;;;;;5035313;28;20108;-86
2020/12/25 05:50:28;;;;;;;67.90;31.20;;;3.40;99.90;;;;;;5034857;28;20530;-88
2020/12/25 05:52:56;;;;;;;81.28;32.20;;;3.50;99.90;;;;;;5034994;28;20030;-82
2020/12/25 05:55:23;;;;;;;77.10;32.80;;;3.50;99.90;;;;;;5035054;28;20028;-83
2020/12/25 05:57:52;;;;;;;81.05;30.52;;;3.50;99.90;;;;;;5016851;28;20018;-82
2020/12/25 06:00:20;;;;;;;78.35;32.15;;;3.40;99.90;;;;;;5017203;28;20075;-85
2020/12/25 06:02:50;;;;;;;72.75;32.08;;;3.50;99.90;;;;;;5034427;28;20021;-85
2020/12/25 06:05:17;;;;;;;70.50;31.67;;;3.50;99.90;;;;;;5017291;28;20072;-83
2020/12/25 06:07:57;;;;;;;80.65;33.08;;;3.50;99.90;;;;;;5034489;28;20112;-81
2020/12/25 06:10:24;;;;;;;77.90;32.25;;;3.40;99.90;;;;;;5034531;28;20389;-81
2020/12/25 06:12:51;;;;;;;85.13;32.13;;;3.40;99.90;;;;;;5034179;28;20116;-84
2020/12/25 06:15:30;;;;;;;69.68;29.90;;;3.30;99.90;;;;;;5017420;28;20083;-85
2020/12/25 06:18:15;;;;;;;82.63;34.33;;;3.40;99.90;;;;;;5034510;28;20071;-82
2020/12/25 06:21:23;;;;;;;74.72;30.95;;;3.40;99.90;;;;;;5017382;28;20500;-82
2020/12/25 06:23:50;;;;;;;125.78;59.42;;;3.40;99.90;;;;;;5016380;28;20057;-86
2020/12/25 06:26:19;;;;;;;80.82;34.08;;;3.80;99.90;;;;;;5016991;28;20032;-88
2020/12/25 06:28:48;;;;;;;81.53;35.28;;;4.00;99.90;;;;;;5034776;28;20029;-84
2020/12/25 06:31:32;;;;;;;79.72;36.17;;;4.00;99.90;;;;;;5017029;28;20025;-89
2020/12/25 06:34:00;;;;;;;122.90;54.08;;;4.50;99.90;;;;;;5034215;28;20036;-82
2020/12/25 06:36:30;;;;;;;91.65;39.65;;;4.60;99.90;;;;;;5016428;28;20021;-87
2020/12/25 06:39:03;;;;;;;87.95;36.83;;;4.30;99.90;;;;;;5016175;28;20488;-83
2020/12/25 06:41:28;;;;;;;83.53;33.75;;;4.10;99.90;;;;;;5016422;28;20063;-87
2020/12/25 06:43:59;;;;;;;81.07;34.35;;;4.00;99.90;;;;;;5032989;28;20081;-83
2020/12/25 06:46:34;;;;;;;74.18;32.10;;;4.00;99.90;;;;;;5015960;28;20029;-82
2020/12/25 06:49:07;;;;;;;77.25;32.95;;;3.90;99.90;;;;;;4994404;28;20517;-85
2020/12/25 06:51:44;;;;;;;83.38;35.58;;;3.90;99.90;;;;;;5003526;28;20025;-84
2020/12/25 06:54:18;;;;;;;86.22;34.63;;;4.00;99.90;;;;;;5015863;28;20025;-81
2020/12/25 06:56:46;;;;;;;76.95;33.80;;;4.00;99.90;;;;;;5001966;28;20026;-83
2020/12/25 06:59:21;;;;;;;74.60;34.13;;;3.90;99.90;;;;;;4996324;28;20386;-87
2020/12/25 07:01:48;;;;;;;76.35;33.78;;;3.80;99.90;;;;;;5031537;28;20021;-89
2020/12/25 07:04:33;;;;;;;86.82;34.33;;;3.70;99.90;;;;;;5014125;28;20034;-87
2020/12/25 07:13:55;;;;;;;165.10;70.22;;;3.80;99.90;;;;;;4992262;28;20515;-86
2020/12/25 07:16:22;;;;;;;79.85;38.58;;;4.80;99.90;;;;;;4975091;28;20033;-86
2020/12/25 07:18:48;;;;;;;75.07;36.20;;;4.40;99.90;;;;;;4971507;28;20030;-86
2020/12/25 07:21:30;;;;;;;75.35;33.50;;;4.20;99.90;;;;;;4988084;28;20034;-86
2020/12/25 07:23:56;;;;;;;76.53;33.78;;;4.10;99.90;;;;;;4969992;28;20041;-86
2020/12/25 07:27:00;;;;;;;76.47;34.03;;;4.10;99.90;;;;;;4977927;28;20452;-86
2020/12/25 07:29:27;;;;;;;82.25;33.97;;;4.10;99.90;;;;;;4972692;28;20052;-85
2020/12/25 07:31:53;;;;;;;81.35;35.35;;;4.10;99.90;;;;;;4998695;28;20025;-88
2020/12/25 07:34:23;;;;;;;67.85;32.05;;;4.20;99.90;;;;;;4995939;28;20071;-87
2020/12/25 07:36:51;;;;;;;75.05;32.42;;;4.00;99.90;;;;;;4996310;28;20034;-88
2020/12/25 07:39:17;;;;;;;69.95;31.95;;;4.00;99.90;;;;;;4995214;28;20033;-85
2020/12/25 07:41:44;;;;;;;73.90;34.85;;;3.90;99.90;;;;;;4995848;28;20058;-88
2020/12/25 07:44:10;;;;;;;77.97;32.53;;;4.00;99.90;;;;;;5013087;28;20085;-85
2020/12/25 07:46:39;;;;;;;73.35;34.03;;;3.80;99.90;;;;;;5013454;28;20022;-85
2020/12/25 07:49:06;;;;;;;81.20;33.40;;;3.90;99.90;;;;;;4995070;28;20069;-85
2020/12/25 07:51:33;;;;;;;75.40;33.40;;;3.90;99.90;;;;;;4995774;28;20499;-86
2020/12/25 07:54:00;;;;;;;83.85;34.50;;;3.80;99.90;;;;;;5013132;28;20120;-85
2020/12/25 07:56:29;;;;;;;72.80;32.50;;;3.90;99.90;;;;;;4995653;28;20120;-88
2020/12/25 07:58:55;;;;;;;86.28;33.53;;;3.80;99.90;;;;;;5012984;28;20036;-86
2020/12/25 08:02:06;;;;;;;79.53;33.88;;;3.80;99.90;;;;;;4995430;28;20474;-85
2020/12/25 08:04:33;;;;;;;;;;;3.80;99.90;;;;;;4973067;28;20046;-86
2020/12/25 08:06:59;;;;;;;75.75;32.58;;;3.70;99.90;;;;;;4976046;28;19941;-86
2020/12/25 08:09:26;;;;;;;99.95;37.35;;;3.70;99.90;;;;;;4991380;28;20054;-86
2020/12/25 08:11:52;;;;;;;88.22;36.28;;;3.70;99.90;;;;;;4975311;28;20050;-84
2020/12/25 08:14:21;;;;;;;88.07;37.38;;;3.80;99.90;;;;;;4993016;28;20061;-86
2020/12/25 08:16:48;;;;;;;80.07;35.75;;;3.80;99.90;;;;;;4976271;28;20026;-86
2020/12/25 08:19:17;;;;;;;83.68;35.80;;;3.90;99.90;;;;;;4995264;28;20060;-87
2020/12/25 08:21:43;;;;;;;82.60;36.47;;;3.90;99.90;;;;;;5012753;28;20513;-85
2020/12/25 08:24:10;;;;;;;83.88;39.42;;;4.00;99.90;;;;;;4978816;28;20069;-83
2020/12/25 08:26:40;;;;;;;85.80;40.63;;;4.20;99.90;;;;;;5012428;28;20366;-86
2020/12/25 08:29:06;;;;;;;;;;;4.20;99.90;;;;;;4995107;28;20061;-83
2020/12/25 08:31:40;;;;;;;66.53;32.53;;;4.30;99.90;;;;;;4994300;28;19906;-85
2020/12/25 08:53:20;;;;;;;78.63;34.40;;;3.70;99.90;;;;;;5033888;23;20049;-81
2020/12/25 08:55:55;;;;;;;81.00;34.85;;;3.90;99.90;;;;;;5003582;28;20061;-83
2020/12/25 08:58:25;;;;;;;72.32;32.88;;;4.10;99.90;;;;;;5011500;28;20022;-81
2020/12/25 09:01:01;;;;;;;79.75;34.85;;;4.20;99.90;;;;;;4977101;28;20022;-82
2020/12/25 09:03:40;;;;;;;70.22;32.85;;;4.20;99.90;;;;;;5004365;28;20018;-84
2020/12/25 09:06:08;;;;;;;82.43;34.35;;;4.30;99.90;;;;;;4975649;28;20430;-84
2020/12/25 09:08:43;;;;;;;77.13;34.83;;;4.20;99.90;;;;;;4977843;28;20027;-84
2020/12/25 09:11:16;;;;;;;84.40;36.38;;;4.30;99.90;;;;;;4977866;28;20426;-83
2020/12/25 09:13:43;;;;;;;94.20;38.90;;;4.10;99.90;;;;;;4977554;28;20038;-83
2020/12/25 09:18:39;;;;;;;86.35;39.15;;;4.30;99.90;;;;;;4978310;28;20043;-82
2020/12/25 09:21:09;;;;;;;88.05;37.22;;;4.50;99.90;;;;;;4975870;28;20026;-82
2020/12/25 09:23:36;;;;;;;93.57;38.88;;;4.40;99.90;;;;;;4977053;28;20125;-84
2020/12/25 09:26:05;;;;;;;104.50;40.17;;;4.10;99.90;;;;;;4977174;28;20117;-83
2020/12/25 09:28:31;;;;;;;93.03;39.88;;;3.90;99.90;;;;;;4977905;28;20022;-82
2020/12/25 09:30:57;;;;;;;92.90;39.90;;;4.10;99.90;;;;;;4977803;28;20042;-83
2020/12/25 09:33:23;;;;;;;119.30;43.55;;;4.10;99.90;;;;;;4964131;28;20027;-83
2020/12/25 09:35:51;;;;;;;96.13;40.60;;;4.00;99.90;;;;;;4958078;28;20105;-86
2020/12/25 09:38:18;;;;;;;127.95;43.22;;;3.90;99.90;;;;;;4958894;28;20050;-86
2020/12/25 09:45:54;;;;;;;112.82;42.17;;;4.00;99.90;;;;;;5443792;23;20050;-83
2020/12/25 09:49:16;;;;;;;99.55;42.03;;;4.10;99.90;;;;;;5006672;28;20033;-86
2020/12/25 09:52:28;;;;;;;92.78;39.88;;;4.50;99.90;;;;;;4993972;28;20010;-83
2020/12/25 09:55:04;;;;;;;92.88;39.38;;;4.70;99.90;;;;;;4953626;28;20033;-85
2020/12/25 09:58:13;;;;;;;104.03;42.38;;;4.60;99.90;;;;;;4977423;28;20160;-84
2020/12/25 10:00:39;;;;;;;101.03;42.05;;;4.60;99.90;;;;;;4962826;28;20363;-82
2020/12/25 10:03:05;;;;;;;114.65;46.00;;;4.30;99.90;;;;;;4977752;28;20497;-84
2020/12/25 10:05:30;;;;;;;104.60;44.42;;;4.40;99.90;;;;;;4977682;28;20041;-84
2020/12/25 10:10:32;;;;;;;99.88;43.35;;;4.60;99.90;;;;;;5546185;23;20430;-84
2020/12/25 10:12:58;;;;;;;98.35;41.20;;;4.70;99.90;;;;;;4993169;28;20362;-83
2020/12/25 10:15:24;;;;;;;94.28;42.75;;;4.80;99.90;;;;;;4992495;28;20462;-84
2020/12/25 10:17:50;;;;;;;104.93;45.40;;;4.90;99.90;;;;;;4991590;28;20015;-85
2020/12/25 10:20:16;;;;;;;103.97;41.10;;;4.80;99.90;;;;;;4992868;28;20030;-85
2020/12/25 10:22:42;;;;;;;101.50;44.35;;;5.10;99.90;;;;;;4992428;28;20109;-86
2020/12/25 10:25:08;;;;;;;108.15;44.53;;;6.20;99.90;;;;;;4975379;28;20042;-88
2020/12/25 10:27:34;;;;;;;99.90;46.88;;;6.00;99.90;;;;;;4981601;28;20018;-88
2020/12/25 10:30:01;;;;;;;107.65;46.70;;;5.60;99.90;;;;;;4993750;28;20113;-86
2020/12/25 10:32:27;;;;;;;116.25;46.03;;;5.30;99.90;;;;;;4994052;28;20022;-87
2020/12/25 10:34:52;;;;;;;113.68;48.75;;;5.20;99.90;;;;;;4993317;28;20049;-89
2020/12/25 10:37:19;;;;;;;104.05;47.92;;;5.00;99.90;;;;;;4994374;28;20412;-87
2020/12/25 10:39:45;;;;;;;112.15;44.20;;;5.00;99.90;;;;;;4993833;28;20036;-85
2020/12/25 10:42:14;;;;;;;101.35;46.70;;;5.00;99.90;;;;;;4995703;28;20034;-86
2020/12/25 10:44:42;;;;;;;109.63;46.28;;;5.20;99.90;;;;;;4996653;28;20031;-88
2020/12/25 10:47:08;;;;;;;103.97;47.25;;;5.30;99.90;;;;;;4998930;28;20068;-90
2020/12/25 10:49:34;;;;;;;101.47;45.05;;;5.40;99.90;;;;;;4997771;28;20026;-88
2020/12/25 10:52:05;;;;;;;108.85;45.20;;;5.50;99.90;;;;;;5013599;28;20030;-86
2020/12/25 10:54:30;;;;;;;102.20;44.15;;;5.50;99.90;;;;;;4995488;28;20030;-81
2020/12/25 10:59:33;;;;;;;117.72;44.65;;;5.20;99.90;;;;;;5028491;22;20053;-91
2020/12/25 11:01:59;;;;;;;105.97;44.88;;;5.40;99.90;;;;;;5013668;28;20030;-85
2020/12/25 11:04:25;;;;;;;112.90;46.72;;;5.30;99.90;;;;;;5005782;28;20376;-85
2020/12/25 11:06:53;;;;;;;116.15;46.58;;;5.30;99.90;;;;;;5016666;28;20132;-86
2020/12/25 11:09:22;;;;;;;111.60;46.08;;;5.40;99.90;;;;;;5016077;28;20025;-83
2020/12/25 11:11:50;;;;;;;114.18;46.38;;;5.50;99.90;;;;;;5023616;28;20025;-88
2020/12/25 11:14:16;;;;;;;102.07;46.70;;;5.30;99.90;;;;;;5029033;28;20021;-84
2020/12/25 11:16:45;;;;;;;115.82;48.78;;;5.50;99.90;;;;;;5014978;28;20180;-85
2020/12/25 11:19:11;;;;;;;115.95;48.28;;;5.60;99.90;;;;;;5013025;28;20030;-86
2020/12/25 11:21:37;;;;;;;108.97;50.35;;;5.70;99.90;;;;;;4995661;28;20029;-84
2020/12/25 11:24:20;;;;;;;;;;;;;;;;;;;;;
2020/12/25 11:26:46;;;;;;;116.55;50.33;;;5.70;99.90;;;;;;5010718;28;20026;-86
2020/12/25 11:29:34;;;;;;;122.75;51.05;;;5.90;99.90;;;;;;4999183;28;20044;-83
2020/12/25 11:32:15;;;;;;;110.60;49.55;;;5.80;99.90;;;;;;5034995;28;20029;-85
2020/12/25 11:34:59;;;;;;;128.05;54.80;;;5.90;99.90;;;;;;5029753;28;20094;-87
2020/12/25 11:37:24;;;;;;;134.63;54.30;;;6.10;99.90;;;;;;4995476;28;20046;-89
2020/12/25 11:39:50;;;;;;;129.40;53.53;;;6.20;99.90;;;;;;5012846;28;20029;-85
2020/12/25 11:42:16;;;;;;;126.82;54.45;;;6.00;99.90;;;;;;5012830;28;20026;-85
2020/12/25 12:02:47;;;;;;;120.00;49.53;;;8.10;99.90;;;;;;4993041;28;20165;-88
2020/12/25 12:10:24;;;;;;;111.22;49.72;;;8.70;99.90;;;;;;5195794;22;20072;-85
2020/12/25 12:12:59;;;;;;;112.93;50.13;;;8.80;99.90;;;;;;4994501;28;20350;-89
2020/12/25 12:26:47;;;;;;;124.53;53.38;;;7.50;99.90;;;;;;4466834;23;18700605;-84
2020/12/25 12:29:29;;;;;;;111.07;51.28;;;6.80;99.90;;;;;;4972215;28;20150;-81
2020/12/25 12:31:55;;;;;;;116.65;51.67;;;6.30;99.90;;;;;;4970816;28;20031;-84
2020/12/25 12:34:33;;;;;;;118.10;51.50;;;6.50;99.90;;;;;;4968240;28;20031;-82
2020/12/25 12:36:59;;;;;;;114.63;51.97;;;6.70;99.90;;;;;;4989954;28;20681;-83
2020/12/25 12:39:34;;;;;;;110.78;51.38;;;6.70;99.90;;;;;;4971579;28;20034;-82
2020/12/25 12:42:05;;;;;;;111.18;48.90;;;6.40;99.90;;;;;;4974049;28;20130;-81
2020/12/25 12:44:31;;;;;;;117.50;49.90;;;6.30;99.90;;;;;;4959901;28;20048;-83
2020/12/25 12:46:57;;;;;;;116.60;51.42;;;6.30;99.90;;;;;;4959584;28;20026;-82
2020/12/25 12:49:25;;;;;;;105.22;49.13;;;6.40;99.90;;;;;;4960085;28;20030;-84
2020/12/25 12:51:51;;;;;;;112.88;51.10;;;6.60;99.90;;;;;;4960129;28;20050;-81
2020/12/25 12:54:23;;;;;;;117.35;50.22;;;6.50;99.90;;;;;;4978813;28;20073;-82
2020/12/25 12:57:04;;;;;;;108.50;51.28;;;6.40;99.90;;;;;;4973211;28;20509;-84
2020/12/25 12:59:30;;;;;;;106.18;48.65;;;6.30;99.90;;;;;;4958463;28;20023;-81
2020/12/25 13:01:57;;;;;;;113.75;51.28;;;6.40;99.90;;;;;;4959285;28;20026;-82
2020/12/25 13:04:25;;;;;;;99.20;48.22;;;6.60;99.90;;;;;;4961263;28;20045;-84
2020/12/25 13:06:51;;;;;;;101.40;47.17;;;6.70;99.90;;;;;;4961457;28;20114;-83
2020/12/25 13:09:17;;;;;;;103.85;47.60;;;6.60;99.90;;;;;;4961654;28;20113;-83
2020/12/25 13:11:43;;;;;;;102.05;48.65;;;6.60;99.90;;;;;;4961544;28;20041;-83
2020/12/25 13:14:09;;;;;;;111.93;49.90;;;6.60;99.90;;;;;;4977964;28;20374;-81
2020/12/25 13:16:35;;;;;;;98.05;48.58;;;6.70;99.90;;;;;;4959249;29;20467;-81
2020/12/25 13:22:23;;;;;;;102.88;48.22;;;6.80;99.90;;;;;;5081652;23;20058;-82
2020/12/25 13:24:49;;;;;;;102.50;48.47;;;6.80;99.90;;;;;;4977424;28;20039;-82
2020/12/25 13:27:15;;;;;;;102.22;48.28;;;6.70;99.90;;;;;;4976762;28;20482;-81
2020/12/25 13:29:40;;;;;;;114.63;49.53;;;6.40;99.90;;;;;;4978450;28;20035;-81
2020/12/25 13:32:06;;;;;;;107.00;52.05;;;6.20;99.90;;;;;;4961032;28;20019;-81
2020/12/25 13:34:32;;;;;;;106.55;49.63;;;6.40;99.90;;;;;;4967143;28;20418;-84
2020/12/25 13:36:58;;;;;;;124.85;52.67;;;6.20;99.90;;;;;;4978453;28;20038;-82
2020/12/25 13:39:23;;;;;;;102.35;51.15;;;6.50;99.90;;;;;;4980228;28;20034;-82
2020/12/25 13:41:53;;;;;;;111.38;52.10;;;6.50;99.90;;;;;;4980486;28;20015;-82
2020/12/25 13:44:20;;;;;;;124.43;52.42;;;6.50;99.90;;;;;;4997773;28;20045;-83
2020/12/25 13:46:47;;;;;;;124.93;55.35;;;6.60;99.90;;;;;;4981789;28;20026;-87
2020/12/25 13:49:13;;;;;;;116.78;53.75;;;6.60;99.90;;;;;;4991797;28;20077;-83
2020/12/25 13:51:39;;;;;;;123.13;56.38;;;6.70;99.90;;;;;;4979564;28;20034;-82
2020/12/25 13:54:05;;;;;;;125.43;57.47;;;6.70;99.90;;;;;;4994450;28;20027;-82
2020/12/25 13:56:30;;;;;;;128.27;56.30;;;6.60;99.90;;;;;;4973198;28;20061;-82
2020/12/25 13:58:56;;;;;;;122.07;57.70;;;6.70;99.90;;;;;;4957439;28;20358;-82
2020/12/25 14:01:22;;;;;;;126.93;57.55;;;6.90;99.90;;;;;;4975088;28;20022;-82
2020/12/25 14:03:48;;;;;;;131.82;58.88;;;6.80;99.90;;;;;;4957302;28;20023;-83